Terminal Aerodrome Forecast
Issued by NWS Charleston, WV

Current Version | Previous Version | Graphics & Text | Print | Product List | Glossary On
Versions: 1 2 3 4 5 6 7 8 9 10 11 12 13 14 15 16 17 18 19 20 21 22 23 24 25
342
FTUS41 KRLX 140257 AAA
TAFCRW
TAF AMD
KCRW 140257Z 1403/1424 04003KT 6SM -RA SCT008 OVC015
      TEMPO 1404/1406 3SM -RA BR OVC008
     FM140600 06003KT 2SM -RA BR OVC007
     FM140800 VRB02KT 1SM -RA BR OVC004
     FM141600 22003KT 3SM -RA BR OVC007=

USA.gov is the U.S. government's official web portal to all federal, state and local government web resources and services.